Hays Regional Airport
KHYS : now visible

Airfield :











YOU CAN JOIN US ON...

 
LOGIN :

Register | Disclaimer

   EN    FR    IT 

 









Legend :    VFR   Marginal VFR   IFR   Intensive IFR   Very Intensive IFR
Visi :
Ceiling :
>= 8 km
>= 3000ft
5 to 8 km
1000 to 3000 ft
1500m to 5 km
500 to 1000 ft
800 to 1500m
200 to 500 ft
< 800m
< 200 ft
Symbols :   Thunderstorms  Fog  Heavy snow  Heavy precipitations  Wind > 20 kt







- Airport Elevation : 1999 ft


KHYS - Hays Regional

CURRENT METAR :
  • 201656Z AUTO 18015KT 10SM CLR 27/19 A2994 RMK AO2 SLP120 T02720194

EXPIRED METARs :
  • 201556Z AUTO 19016G21KT 10SM CLR 26/19 A2995 RMK AO2 SLP124 T02610189
  • 201456Z AUTO 16017G20KT 10SM CLR 25/20 A2995 RMK AO2 SLP127 T02500200 51000

TAF KHYS
Valid from the 20 at 12:00 until the 21 at 12:00 UTC


201120Z 2012/2112 15006KT P6SM SKC
FM201600 17015G21KT P6SM SCT120
No reported NOTAMs for that airfield.



MET'MAP, your aeronautical weather chart ! - Copyright ORBIFLY December 2007 - Disclaimer

ORBIFLY MET'MAP TEAM :

Programming & Development : Alexandra Zaïnal
Concept & Development : Baudouin d'Aumeries
Co-Development & Prog : Marc-Olivier Méhu
Technical & hardware support : Manuel Goepfert

Contact : metmap@orbifly.com




SOURCES & CREDITS :

   NOAA       Earth
Advisory